createdAt,value
2022-10-03T00:00:36.615Z,1.50
2022-10-03T00:03:35.943Z,1.13
2022-10-03T00:06:10.660Z,1.63
2022-10-03T00:09:11.000Z,1.08
2022-10-03T00:11:47.323Z,1.15
2022-10-03T00:14:24.496Z,1.42
2022-10-03T00:17:03.303Z,1.10
2022-10-03T00:19:44.121Z,1.00
2022-10-03T00:22:23.879Z,1.17
2022-10-03T00:25:03.995Z,1.42
2022-10-03T00:27:38.643Z,1.48
2022-10-03T00:30:16.600Z,1.25
2022-10-03T00:33:09.082Z,0.90
2022-10-03T00:35:49.189Z,1.27
2022-10-03T00:38:40.257Z,1.25
2022-10-03T00:41:25.294Z,1.17
2022-10-03T00:44:37.220Z,1.20
2022-10-03T00:47:32.215Z,1.17
2022-10-03T00:50:28.328Z,1.05
2022-10-03T00:53:16.767Z,0.90
2022-10-03T00:56:03.826Z,1.25
2022-10-03T00:58:52.727Z,1.02
2022-10-03T01:01:32.743Z,1.10
2022-10-03T01:04:17.403Z,1.35
2022-10-03T01:06:51.028Z,1.08
2022-10-03T01:09:43.961Z,1.27
2022-10-03T01:12:30.375Z,1.35
2022-10-03T01:15:17.599Z,1.13
2022-10-03T01:18:00.419Z,0.95
2022-10-03T01:20:36.479Z,1.10
2022-10-03T01:23:39.189Z,1.00
2022-10-03T01:26:29.870Z,1.25
2022-10-03T01:29:21.641Z,1.70
2022-10-03T01:31:57.086Z,1.17
2022-10-03T01:34:32.084Z,0.98
2022-10-03T01:37:08.803Z,1.20
2022-10-03T01:39:45.144Z,1.40
2022-10-03T01:42:20.666Z,1.30
2022-10-03T01:45:10.655Z,1.35
2022-10-03T01:47:51.472Z,1.20
2022-10-03T01:50:26.520Z,1.55
2022-10-03T01:53:01.324Z,1.27
2022-10-03T01:55:38.838Z,1.90
2022-10-03T01:58:12.623Z,1.50
2022-10-03T02:00:48.492Z,1.52
2022-10-03T02:03:25.595Z,2.25
2022-10-03T02:06:01.907Z,1.50
2022-10-03T02:08:45.371Z,1.40
2022-10-03T02:11:29.763Z,1.33
2022-10-03T02:14:07.305Z,1.48
2022-10-03T02:16:44.436Z,1.52
2022-10-03T02:19:23.958Z,2.15
2022-10-03T02:21:54.418Z,1.50
2022-10-03T02:24:42.413Z,1.25
2022-10-03T02:27:41.949Z,1.33
2022-10-03T02:30:18.922Z,1.08
2022-10-03T02:33:34.642Z,1.20
2022-10-03T02:36:49.719Z,1.13
2022-10-03T02:39:46.832Z,1.42
2022-10-03T02:42:41.858Z,1.50
2022-10-03T02:45:37.954Z,1.10
2022-10-03T02:48:57.587Z,1.25
2022-10-03T02:52:09.064Z,1.20
2022-10-03T02:55:05.319Z,0.82
2022-10-03T02:58:07.014Z,1.02
2022-10-03T03:00:50.411Z,1.05
2022-10-03T03:03:40.533Z,1.13
2022-10-03T03:06:39.141Z,1.42
2022-10-03T03:09:37.977Z,1.02
2022-10-03T03:12:41.409Z,1.45
2022-10-03T03:15:39.353Z,1.20
2022-10-03T03:18:17.421Z,1.33
2022-10-03T03:21:00.109Z,1.13
2022-10-03T03:23:46.884Z,1.17
2022-10-03T03:26:36.631Z,1.30
2022-10-03T03:29:18.316Z,1.20
2022-10-03T03:31:55.332Z,0.98
2022-10-03T03:34:30.087Z,1.27
2022-10-03T03:37:06.136Z,1.20
2022-10-03T03:39:54.955Z,1.20
2022-10-03T03:42:40.605Z,1.45
2022-10-03T03:45:31.560Z,1.13
2022-10-03T03:48:12.919Z,1.05
2022-10-03T03:50:49.314Z,1.35
2022-10-03T03:53:49.899Z,0.90
2022-10-03T03:56:34.083Z,1.10
2022-10-03T03:59:19.302Z,1.08
2022-10-03T04:02:07.233Z,1.10
2022-10-03T04:04:46.530Z,1.42
2022-10-03T04:07:27.928Z,0.98
2022-10-03T04:10:15.072Z,1.58
2022-10-03T04:13:11.695Z,1.25
2022-10-03T04:15:56.726Z,0.70
2022-10-03T04:18:59.866Z,1.88
2022-10-03T04:22:12.506Z,1.20
2022-10-03T04:25:06.762Z,0.90
2022-10-03T04:27:55.457Z,1.20
2022-10-03T04:30:33.531Z,1.83
2022-10-03T04:33:18.197Z,1.05
2022-10-03T04:36:16.294Z,1.08
2022-10-03T04:38:55.448Z,1.17
2022-10-03T04:41:30.361Z,1.15
2022-10-03T04:44:12.345Z,1.00
2022-10-03T04:46:47.179Z,1.40
2022-10-03T04:49:26.301Z,1.05
2022-10-03T04:52:01.895Z,1.45
2022-10-03T04:54:48.228Z,1.30
2022-10-03T04:57:26.687Z,1.20
2022-10-03T05:00:08.790Z,1.33
2022-10-03T05:02:46.786Z,1.23
2022-10-03T05:05:51.491Z,1.30
2022-10-03T05:08:37.439Z,1.65
2022-10-03T05:11:21.653Z,1.23
2022-10-03T05:14:02.269Z,0.98
2022-10-03T05:16:40.285Z,1.25
2022-10-03T05:19:28.600Z,1.17
2022-10-03T05:22:03.749Z,1.17
2022-10-03T05:24:40.114Z,1.88
2022-10-03T05:27:20.063Z,1.20
2022-10-03T05:29:58.716Z,1.02
2022-10-03T05:32:34.449Z,2.42
2022-10-03T05:35:24.237Z,1.20
2022-10-03T05:38:19.213Z,1.20
2022-10-03T05:41:03.170Z,1.70
2022-10-03T05:43:46.318Z,1.45
2022-10-03T05:46:24.540Z,1.17
2022-10-03T05:49:04.830Z,1.65
2022-10-03T05:51:49.649Z,1.55
2022-10-03T05:54:48.844Z,1.23
2022-10-03T05:57:43.007Z,1.45
2022-10-03T06:00:21.830Z,2.28
2022-10-03T06:03:19.095Z,1.10
2022-10-03T06:06:01.701Z,1.02
2022-10-03T06:09:20.641Z,1.58
2022-10-03T06:12:03.440Z,1.50
2022-10-03T06:15:03.338Z,1.33
2022-10-03T06:17:56.383Z,1.55
2022-10-03T06:21:11.312Z,1.75
2022-10-03T06:23:59.559Z,2.33
2022-10-03T06:27:01.823Z,1.45
2022-10-03T06:30:04.146Z,1.80
2022-10-03T06:33:08.058Z,1.55
2022-10-03T06:36:09.437Z,1.45
2022-10-03T06:39:41.544Z,2.25
2022-10-03T06:42:46.405Z,1.70
2022-10-03T06:45:51.021Z,1.95
2022-10-03T06:49:01.863Z,1.85
2022-10-03T06:51:51.585Z,1.90
2022-10-03T06:54:53.794Z,2.70
2022-10-03T06:57:45.443Z,2.10
2022-10-03T07:00:20.451Z,1.92
2022-10-03T07:03:11.369Z,2.38
2022-10-03T07:06:05.281Z,2.22
2022-10-03T07:09:07.494Z,2.22
2022-10-03T07:11:56.133Z,1.90
2022-10-03T07:14:55.451Z,1.88
2022-10-03T07:17:47.562Z,2.20
2022-10-03T07:20:48.858Z,2.08
2022-10-03T07:23:43.831Z,2.20
2022-10-03T07:26:45.920Z,2.38
2022-10-03T07:29:23.716Z,1.85
2022-10-03T07:32:17.997Z,2.25
2022-10-03T07:35:13.495Z,1.75
2022-10-03T07:38:24.919Z,1.92
2022-10-03T07:41:22.571Z,1.58
2022-10-03T07:44:23.590Z,1.60
2022-10-03T07:47:16.547Z,1.27
2022-10-03T07:50:18.657Z,1.40
2022-10-03T07:53:02.417Z,1.50
2022-10-03T07:55:49.558Z,1.55
2022-10-03T07:58:37.786Z,1.30
2022-10-03T08:01:35.239Z,1.42
2022-10-03T08:04:40.927Z,1.17
2022-10-03T08:07:38.728Z,1.27
2022-10-03T08:10:34.483Z,1.58
2022-10-03T08:13:28.813Z,0.93
2022-10-03T08:16:12.967Z,1.27
2022-10-03T08:19:23.822Z,1.15
2022-10-03T08:22:06.174Z,1.08
2022-10-03T08:25:02.719Z,1.13
2022-10-03T08:27:47.646Z,1.38
2022-10-03T08:30:42.499Z,1.27
2022-10-03T08:33:31.915Z,1.60
2022-10-03T08:36:38.521Z,0.85
2022-10-03T08:39:27.557Z,1.20
2022-10-03T08:42:24.145Z,1.30
2022-10-03T08:45:05.690Z,1.10
2022-10-03T08:48:01.510Z,1.30
2022-10-03T08:50:55.578Z,1.10
2022-10-03T08:53:54.037Z,1.10
2022-10-03T08:56:28.193Z,0.93
2022-10-03T08:59:45.467Z,1.30
2022-10-03T09:03:20.103Z,1.58
2022-10-03T09:06:24.951Z,0.98
2022-10-03T09:09:19.813Z,1.17
2022-10-03T09:12:31.734Z,1.00
2022-10-03T09:15:41.869Z,0.77
2022-10-03T09:18:38.758Z,0.80
2022-10-03T09:21:36.411Z,1.23
2022-10-03T09:24:51.609Z,1.20
2022-10-03T09:27:34.732Z,0.98
2022-10-03T09:30:24.166Z,1.42
2022-10-03T09:33:43.245Z,1.17
2022-10-03T09:36:31.628Z,1.17
2022-10-03T09:39:53.223Z,0.85
2022-10-03T09:43:00.007Z,1.15
2022-10-03T09:46:19.284Z,1.25
2022-10-03T09:49:13.493Z,0.98
2022-10-03T09:51:52.467Z,1.10
2022-10-03T09:54:45.276Z,0.82
2022-10-03T09:57:58.619Z,1.15
2022-10-03T10:00:31.778Z,0.85
2022-10-03T10:03:23.226Z,0.80
2022-10-03T10:06:04.721Z,1.40
2022-10-03T10:08:56.809Z,1.30
2022-10-03T10:11:37.522Z,1.10
2022-10-03T10:14:30.170Z,1.33
2022-10-03T10:17:45.153Z,0.82
2022-10-03T10:20:37.103Z,0.82
2022-10-03T10:23:37.985Z,1.15
2022-10-03T10:26:42.110Z,0.93
2022-10-03T10:29:37.198Z,0.77
2022-10-03T10:32:49.979Z,0.98
2022-10-03T10:35:56.869Z,0.98
2022-10-03T10:38:35.585Z,1.10
2022-10-03T10:41:41.592Z,1.00
2022-10-03T10:44:58.185Z,0.80
2022-10-03T10:48:03.229Z,0.75
2022-10-03T10:51:19.489Z,0.70
2022-10-03T10:57:09.562Z,0.65
2022-10-03T11:00:10.889Z,0.45
2022-10-03T11:03:32.612Z,0.70
2022-10-03T11:06:37.457Z,0.93
2022-10-03T11:09:29.567Z,0.60
2022-10-03T11:12:34.934Z,0.70
2022-10-03T11:15:52.286Z,0.73
2022-10-03T11:19:17.593Z,0.60
2022-10-03T11:22:30.391Z,0.98
2022-10-03T11:25:37.750Z,0.55
2022-10-03T11:28:47.780Z,0.57
2022-10-03T11:31:52.843Z,0.60
2022-10-03T11:35:06.555Z,0.50
2022-10-03T11:37:41.680Z,0.82
2022-10-03T11:40:32.468Z,1.23
2022-10-03T11:43:32.858Z,0.80
2022-10-03T11:46:20.970Z,0.82
2022-10-03T11:48:55.158Z,0.75
2022-10-03T11:51:41.719Z,0.60
2022-10-03T11:54:31.049Z,0.73
2022-10-03T11:57:06.913Z,0.90
2022-10-03T11:59:54.704Z,0.80
2022-10-03T12:02:52.522Z,0.85
2022-10-03T12:05:30.991Z,0.60
2022-10-03T12:08:34.761Z,0.65
2022-10-03T12:11:14.249Z,1.08
2022-10-03T12:14:07.357Z,0.88
2022-10-03T12:16:57.869Z,0.50
2022-10-03T12:19:32.316Z,0.80
2022-10-03T12:22:09.728Z,0.60
2022-10-03T12:24:43.987Z,0.80
2022-10-03T12:27:20.874Z,0.85
2022-10-03T12:29:58.788Z,0.80
2022-10-03T12:32:37.321Z,0.93
2022-10-03T12:35:29.787Z,0.65
2022-10-03T12:38:11.607Z,0.85
2022-10-03T12:40:44.426Z,0.88
2022-10-03T12:43:31.843Z,0.75
2022-10-03T12:46:04.150Z,0.75
2022-10-03T12:48:48.479Z,1.10
2022-10-03T12:51:26.890Z,0.73
2022-10-03T12:54:08.279Z,0.90
2022-10-03T12:56:48.923Z,0.80
2022-10-03T12:59:38.778Z,0.77
2022-10-03T13:02:27.948Z,0.75
2022-10-03T13:05:36.242Z,0.70
2022-10-03T13:08:12.625Z,0.70
2022-10-03T13:10:43.600Z,0.70
2022-10-03T13:13:26.410Z,0.70
2022-10-03T13:16:21.177Z,0.90
2022-10-03T13:18:54.767Z,0.80
2022-10-03T13:21:47.807Z,0.90
2022-10-03T13:24:27.532Z,0.80
2022-10-03T13:27:10.759Z,0.80
2022-10-03T13:29:42.634Z,0.80
2022-10-03T13:32:17.056Z,0.82
2022-10-03T13:34:57.222Z,0.73
2022-10-03T13:37:34.099Z,0.63
2022-10-03T13:40:07.926Z,1.00
2022-10-03T13:42:42.232Z,0.63
2022-10-03T13:45:17.346Z,1.40
2022-10-03T13:47:49.483Z,0.93
2022-10-03T13:50:21.626Z,1.10
2022-10-03T13:52:54.671Z,0.70
2022-10-03T13:55:32.573Z,0.95
2022-10-03T13:58:31.606Z,1.10
2022-10-03T14:01:27.398Z,1.00
2022-10-03T14:04:33.510Z,0.68
2022-10-03T14:07:09.179Z,0.85
2022-10-03T14:09:52.970Z,0.90
2022-10-03T14:12:51.124Z,1.10
2022-10-03T14:15:36.062Z,0.90
2022-10-03T14:18:20.911Z,0.90
2022-10-03T14:21:17.583Z,0.77
2022-10-03T14:23:52.746Z,0.77
2022-10-03T14:26:29.675Z,0.63
2022-10-03T14:29:04.290Z,0.80
2022-10-03T14:31:39.482Z,1.00
2022-10-03T14:34:21.929Z,0.45
2022-10-03T14:36:54.917Z,1.00
2022-10-03T14:39:36.748Z,0.90
2022-10-03T14:42:38.934Z,0.95
2022-10-03T14:45:10.894Z,0.80
2022-10-03T14:47:41.644Z,0.73
2022-10-03T14:50:19.482Z,1.00
2022-10-03T14:52:54.471Z,1.38
2022-10-03T14:55:30.008Z,0.80
2022-10-03T14:58:10.838Z,0.70
2022-10-03T15:00:44.386Z,1.02
2022-10-03T15:03:30.580Z,0.85
2022-10-03T15:06:37.789Z,0.70
2022-10-03T15:09:11.793Z,0.85
2022-10-03T15:11:48.333Z,1.23
2022-10-03T15:14:17.665Z,1.20
2022-10-03T15:16:50.778Z,1.15
2022-10-03T15:19:23.036Z,1.05
2022-10-03T15:21:54.152Z,0.70
2022-10-03T15:24:26.662Z,0.80
2022-10-03T15:26:59.785Z,0.68
2022-10-03T15:29:28.847Z,1.42
2022-10-03T15:31:58.649Z,1.08
2022-10-03T15:34:31.777Z,0.80
2022-10-03T15:37:07.172Z,1.20
2022-10-03T15:39:40.412Z,0.80
2022-10-03T15:42:23.779Z,0.65
2022-10-03T15:44:54.770Z,1.23
2022-10-03T15:47:27.360Z,1.08
2022-10-03T15:50:00.453Z,1.38
2022-10-03T15:52:40.208Z,0.90
2022-10-03T15:55:15.331Z,1.45
2022-10-03T15:57:47.451Z,1.50
2022-10-03T16:00:24.687Z,1.40
2022-10-03T16:03:00.226Z,1.00
2022-10-03T16:05:28.847Z,1.20
2022-10-03T16:08:07.921Z,0.80
2022-10-03T16:10:40.474Z,1.05
2022-10-03T16:13:24.165Z,0.80
2022-10-03T16:16:21.153Z,0.85
2022-10-03T16:18:57.747Z,1.00
2022-10-03T16:21:44.459Z,1.25
2022-10-03T16:24:29.735Z,1.00
2022-10-03T16:27:06.278Z,0.93
2022-10-03T16:29:38.488Z,1.00
2022-10-03T16:32:09.538Z,0.82
2022-10-03T16:34:43.341Z,0.95
2022-10-03T16:37:19.505Z,1.00
2022-10-03T16:39:58.707Z,1.77
2022-10-03T16:42:31.257Z,1.67
2022-10-03T16:45:02.102Z,1.73
2022-10-03T16:47:35.536Z,1.17
2022-10-03T16:50:22.625Z,0.85
2022-10-03T16:52:53.343Z,0.93
2022-10-03T16:55:29.660Z,1.20
2022-10-03T16:58:00.714Z,1.63
2022-10-03T17:00:39.192Z,1.48
2022-10-03T17:03:18.818Z,1.50
2022-10-03T17:05:49.430Z,1.40
2022-10-03T17:08:40.819Z,1.00
2022-10-03T17:11:18.301Z,2.08
2022-10-03T17:13:51.053Z,2.42
2022-10-03T17:16:28.536Z,2.08
2022-10-03T17:19:14.865Z,1.42
2022-10-03T17:21:52.403Z,1.45
2022-10-03T17:24:31.495Z,1.42
2022-10-03T17:27:07.672Z,1.33
2022-10-03T17:29:41.859Z,1.05
2022-10-03T17:32:20.652Z,1.30
2022-10-03T17:34:55.423Z,1.52
2022-10-03T17:38:01.843Z,0.80
2022-10-03T17:40:51.842Z,1.17
2022-10-03T17:43:31.380Z,1.27
2022-10-03T17:46:06.398Z,1.50
2022-10-03T17:48:40.368Z,1.50
2022-10-03T17:51:33.275Z,1.20
2022-10-03T17:54:05.441Z,1.20
2022-10-03T17:56:35.448Z,2.08
2022-10-03T17:59:09.127Z,1.35
2022-10-03T18:01:40.967Z,1.50
2022-10-03T18:04:18.567Z,1.23
2022-10-03T18:06:49.295Z,2.17
2022-10-03T18:09:40.700Z,1.40
2022-10-03T18:12:22.658Z,1.20
2022-10-03T18:15:16.227Z,1.17
2022-10-03T18:18:00.566Z,1.15
2022-10-03T18:20:44.068Z,1.50
2022-10-03T18:23:53.244Z,0.90
2022-10-03T18:26:28.269Z,0.95
2022-10-03T18:29:07.034Z,1.00
2022-10-03T18:31:41.245Z,1.02
2022-10-03T18:34:15.091Z,1.17
2022-10-03T18:36:46.786Z,1.27
2022-10-03T18:39:18.479Z,1.00
2022-10-03T18:41:52.258Z,1.38
2022-10-03T18:44:22.087Z,1.27
2022-10-03T18:47:04.999Z,1.15
2022-10-03T18:49:35.409Z,0.95
2022-10-03T18:52:10.798Z,1.00
2022-10-03T18:54:51.343Z,1.35
2022-10-03T18:57:24.720Z,1.10
2022-10-03T18:59:57.557Z,0.85
2022-10-03T19:02:39.267Z,1.30
2022-10-03T19:05:15.467Z,0.90
2022-10-03T19:07:51.077Z,0.80
2022-10-03T19:10:32.922Z,1.05
2022-10-03T19:13:05.627Z,0.80
2022-10-03T19:15:46.932Z,1.08
2022-10-03T19:18:26.317Z,1.10
2022-10-03T19:20:57.545Z,1.00
2022-10-03T19:23:30.870Z,1.00
2022-10-03T19:26:03.068Z,0.80
2022-10-03T19:28:33.815Z,1.10
2022-10-03T19:31:06.794Z,1.00
2022-10-03T19:33:43.398Z,1.23
2022-10-03T19:36:17.547Z,0.73
2022-10-03T19:38:47.946Z,1.10
2022-10-03T19:41:28.197Z,1.38
2022-10-03T19:43:57.321Z,1.15
2022-10-03T19:46:53.257Z,1.10
2022-10-03T19:49:33.575Z,1.10
2022-10-03T19:52:19.096Z,0.90
2022-10-03T19:54:54.527Z,0.80
2022-10-03T19:57:28.294Z,0.98
2022-10-03T19:59:59.325Z,1.05
2022-10-03T20:02:29.886Z,0.75
2022-10-03T20:04:59.594Z,0.80
2022-10-03T20:07:44.267Z,0.85
2022-10-03T20:10:45.091Z,1.02
2022-10-03T20:13:13.374Z,1.23
2022-10-03T20:15:45.374Z,1.02
2022-10-03T20:18:20.959Z,1.23
2022-10-03T20:20:54.086Z,1.15
2022-10-03T20:23:26.394Z,1.33
2022-10-03T20:25:59.426Z,1.27
2022-10-03T20:28:42.734Z,1.00
2022-10-03T20:31:11.831Z,1.13
2022-10-03T20:33:40.055Z,1.55
2022-10-03T20:36:17.243Z,1.08
2022-10-03T20:39:01.079Z,1.23
2022-10-03T20:41:37.267Z,1.40
2022-10-03T20:44:14.977Z,1.10
2022-10-03T20:46:47.379Z,1.38
2022-10-03T20:49:29.011Z,1.13
2022-10-03T20:52:04.015Z,1.00
2022-10-03T20:54:37.418Z,0.88
2022-10-03T20:57:14.954Z,1.00
2022-10-03T20:59:47.685Z,1.10
2022-10-03T21:02:28.425Z,1.10
2022-10-03T21:05:00.898Z,1.00
2022-10-03T21:07:49.827Z,1.05
2022-10-03T21:10:28.049Z,1.08
2022-10-03T21:13:00.429Z,1.05
2022-10-03T21:15:39.167Z,1.60
2022-10-03T21:18:08.430Z,1.40
2022-10-03T21:20:39.538Z,0.80
2022-10-03T21:23:16.926Z,0.70
2022-10-03T21:25:45.539Z,1.00
2022-10-03T21:28:32.357Z,0.80
2022-10-03T21:31:32.178Z,0.90
2022-10-03T21:34:07.499Z,1.08
2022-10-03T21:36:40.692Z,0.90
2022-10-03T21:39:18.874Z,1.10
2022-10-03T21:41:59.645Z,1.15
2022-10-03T21:44:40.078Z,0.93
2022-10-03T21:47:21.611Z,1.17
2022-10-03T21:49:56.983Z,0.98
2022-10-03T21:52:40.043Z,0.82
2022-10-03T21:55:45.334Z,0.70
2022-10-03T21:58:26.338Z,0.80
2022-10-03T22:01:03.155Z,1.10
2022-10-03T22:03:37.062Z,0.80
2022-10-03T22:06:13.355Z,0.80
2022-10-03T22:08:44.804Z,0.90
2022-10-03T22:11:25.893Z,0.73
2022-10-03T22:14:03.633Z,0.73
2022-10-03T22:16:38.922Z,1.13
2022-10-03T22:19:23.421Z,0.98
2022-10-03T22:22:07.111Z,0.95
2022-10-03T22:24:47.714Z,0.75
2022-10-03T22:27:23.546Z,0.77
2022-10-03T22:30:01.738Z,0.80
2022-10-03T22:32:37.491Z,0.70
2022-10-03T22:35:21.786Z,0.85
2022-10-03T22:37:50.169Z,0.85
2022-10-03T22:40:18.539Z,1.00
2022-10-03T22:42:53.474Z,0.90
2022-10-03T22:45:24.341Z,1.17
2022-10-03T22:47:57.298Z,0.80
2022-10-03T22:50:29.233Z,0.95
2022-10-03T22:52:59.437Z,1.38
2022-10-03T22:55:29.230Z,1.30
2022-10-03T22:58:00.885Z,0.93
2022-10-03T23:00:33.343Z,0.88
2022-10-03T23:03:09.359Z,1.38
2022-10-03T23:06:17.927Z,1.27
2022-10-03T23:08:57.075Z,1.30
2022-10-03T23:11:27.966Z,1.38
2022-10-03T23:13:59.884Z,1.00
2022-10-03T23:16:44.482Z,1.17
2022-10-03T23:19:24.077Z,1.17
2022-10-03T23:21:53.364Z,1.20
2022-10-03T23:24:28.650Z,0.90
2022-10-03T23:27:26.189Z,0.80
2022-10-03T23:30:52.337Z,1.10
2022-10-03T23:33:51.194Z,1.00
2022-10-03T23:36:23.412Z,1.00
2022-10-03T23:39:29.195Z,1.17
2022-10-03T23:42:00.994Z,0.93
2022-10-03T23:44:40.279Z,1.40
2022-10-03T23:47:13.416Z,1.33
2022-10-03T23:49:44.790Z,1.17
2022-10-03T23:52:19.658Z,0.98
2022-10-03T23:54:49.533Z,1.00
2022-10-03T23:57:20.050Z,0.80
2022-10-03T23:59:49.438Z,0.90
